Time;durP1;ratioP1;P1;durP2;ratioP2;P2;SDS_P1;SDS_P2;PMS_P1;PMS_P2;Temp;Humidity;BMP_temperature;BMP_pressure;BME280_temperature;BME280_humidity;BME280_pressure;Samples;Min_cycle;Max_cycle;Signal;HPM_P1;HPM_P2
2024/01/08 00:00:51;;;;;;;2.93;2.73;;;2.90;71.40;0.70;96469.00;;;;5059963;28;20438;-77
2024/01/08 00:03:18;;;;;;;3.00;2.80;;;2.90;71.30;0.70;96461.00;;;;5058073;28;20528;-77
2024/01/08 00:05:45;;;;;;;3.03;2.83;;;2.90;71.40;0.70;96472.00;;;;5052686;28;21078;-76
2024/01/08 00:08:13;;;;;;;3.13;2.83;;;2.90;71.60;0.70;96483.00;;;;5051069;28;20886;-77
2024/01/08 00:10:42;;;;;;;3.07;2.80;;;2.80;71.70;0.70;96474.00;;;;5051507;28;20546;-77
2024/01/08 00:13:09;;;;;;;3.20;3.00;;;2.80;71.40;0.60;96465.00;;;;5053018;28;20526;-76
2024/01/08 00:15:36;;;;;;;3.40;3.10;;;2.80;71.60;0.60;96464.00;;;;5052419;28;20427;-77
2024/01/08 00:18:04;;;;;;;4.00;2.80;;;2.80;72.00;0.60;96464.00;;;;5051428;28;20534;-77
2024/01/08 00:20:32;;;;;;;3.33;3.10;;;2.70;71.90;0.60;96475.00;;;;5045113;28;20466;-77
2024/01/08 00:22:59;;;;;;;3.30;3.00;;;2.70;71.90;0.60;96469.00;;;;5052654;28;20552;-77
2024/01/08 00:25:26;;;;;;;2.93;2.73;;;2.70;71.70;0.50;96464.00;;;;5051140;28;20494;-77
2024/01/08 00:27:56;;;;;;;3.27;2.97;;;2.70;71.80;0.50;96469.00;;;;5050194;28;20518;-76
2024/01/08 00:30:26;;;;;;;3.03;2.73;;;2.70;71.60;0.50;96468.00;;;;5044907;28;21013;-77
2024/01/08 00:32:53;;;;;;;3.13;2.83;;;2.70;71.70;0.50;96473.00;;;;5053700;28;20443;-76
2024/01/08 00:35:20;;;;;;;3.20;2.90;;;2.60;71.70;0.50;96476.00;;;;5052721;28;20467;-76
2024/01/08 00:37:48;;;;;;;3.23;2.93;;;2.70;71.80;0.50;96483.00;;;;5052360;28;20478;-76
2024/01/08 00:40:15;;;;;;;3.17;2.90;;;2.60;71.50;0.40;96471.00;;;;5052276;28;20494;-77
2024/01/08 00:42:42;;;;;;;2.90;2.70;;;2.60;71.70;0.40;96469.00;;;;5035432;28;20443;-77
2024/01/08 00:45:11;;;;;;;3.20;2.90;;;2.60;71.70;0.40;96466.00;;;;5052270;28;20534;-77
2024/01/08 00:47:39;;;;;;;2.70;2.50;;;2.60;71.70;0.30;96473.00;;;;5052744;28;20510;-77
2024/01/08 00:50:09;;;;;;;3.00;2.80;;;2.50;71.40;0.30;96474.00;;;;5051460;28;20908;-76
2024/01/08 00:52:37;;;;;;;3.50;3.20;;;2.50;71.30;0.30;96476.00;;;;5054670;28;21206;-77
2024/01/08 00:55:06;;;;;;;3.20;2.90;;;2.50;71.60;0.30;96465.00;;;;5053759;28;20526;-76
2024/01/08 00:57:34;;;;;;;3.03;2.83;;;2.50;71.30;0.30;96470.00;;;;5051757;28;20439;-77
2024/01/08 01:00:02;;;;;;;3.10;2.90;;;2.50;71.50;0.20;96478.00;;;;5050269;28;20534;-76
2024/01/08 01:02:31;;;;;;;2.80;2.60;;;2.50;71.30;0.20;96478.00;;;;5049507;28;21001;-76
2024/01/08 01:04:58;;;;;;;3.20;2.93;;;2.40;71.10;0.20;96486.00;;;;5057391;28;20446;-76
2024/01/08 01:07:26;;;;;;;3.27;2.93;;;2.40;71.50;0.20;96491.00;;;;5049210;28;20467;-76
2024/01/08 01:09:53;;;;;;;3.10;2.80;;;2.40;71.70;0.20;96488.00;;;;5050861;28;20455;-77
2024/01/08 01:12:20;;;;;;;2.50;2.40;;;2.40;71.40;0.20;96485.00;;;;5050068;28;21168;-76
2024/01/08 01:14:48;;;;;;;3.23;2.70;;;2.40;71.80;0.20;96492.00;;;;5051182;28;20439;-77
2024/01/08 01:17:15;;;;;;;2.70;2.50;;;2.40;71.60;0.20;96490.00;;;;5051208;28;20527;-76
2024/01/08 01:19:44;;;;;;;3.10;2.80;;;2.40;71.70;0.10;96494.00;;;;5050451;28;20554;-76
2024/01/08 01:22:11;;;;;;;2.77;2.57;;;2.40;71.60;0.10;96489.00;;;;5051301;28;20435;-76
2024/01/08 01:24:38;;;;;;;3.13;2.83;;;2.30;71.50;0.10;96491.00;;;;5050682;28;20439;-76
2024/01/08 01:27:05;;;;;;;3.20;2.90;;;2.30;71.50;0.10;96488.00;;;;5051732;28;20481;-76
2024/01/08 01:29:33;;;;;;;2.80;2.60;;;2.30;71.40;0.10;96497.00;;;;5051652;28;21078;-76
2024/01/08 01:32:00;;;;;;;2.73;2.53;;;2.30;71.60;0.10;96494.00;;;;5051457;28;20467;-76
2024/01/08 01:34:27;;;;;;;3.00;2.80;;;2.30;71.50;0.10;96495.00;;;;5045922;28;20443;-76
2024/01/08 01:36:56;;;;;;;3.13;2.83;;;2.30;71.70;0.10;96500.00;;;;5050697;28;20519;-76
2024/01/08 01:39:23;;;;;;;2.90;2.70;;;2.30;71.70;0.10;96503.00;;;;5044284;28;20558;-76
2024/01/08 01:41:52;;;;;;;3.10;2.90;;;2.30;71.60;0.10;96508.00;;;;5051664;28;20539;-76
2024/01/08 01:44:19;;;;;;;2.90;2.70;;;2.30;71.40;0.10;96505.00;;;;5049101;28;20463;-76
2024/01/08 01:46:49;;;;;;;2.87;2.67;;;2.30;71.20;0.00;96502.00;;;;5050940;28;20563;-76
2024/01/08 01:49:18;;;;;;;3.00;2.80;;;2.20;71.50;0.00;96491.00;;;;5049507;28;21085;-76
2024/01/08 01:51:48;;;;;;;3.30;3.07;;;2.20;71.40;0.00;96503.00;;;;5049577;28;20477;-76
2024/01/08 01:54:21;;;;;;;3.60;3.30;;;2.20;71.40;0.00;96494.00;;;;5050109;28;20443;-76
2024/01/08 01:56:53;;;;;;;3.20;3.00;;;2.20;71.40;0.00;96496.00;;;;5052968;28;20544;-76
2024/01/08 01:59:22;;;;;;;3.17;2.47;;;2.20;71.60;0.10;96499.00;;;;5049363;28;20463;-76
2024/01/08 02:01:50;;;;;;;3.33;3.03;;;2.20;71.50;0.10;96506.00;;;;5049037;28;20450;-76
2024/01/08 02:04:18;;;;;;;3.00;2.80;;;2.20;71.40;0.10;96493.00;;;;5050145;28;20542;-76
2024/01/08 02:06:46;;;;;;;2.97;2.77;;;2.30;71.50;0.10;96498.00;;;;5051331;28;21035;-76
2024/01/08 02:09:16;;;;;;;2.90;2.70;;;2.20;71.50;0.10;96505.00;;;;5051084;28;21019;-76
2024/01/08 02:11:43;;;;;;;3.10;2.90;;;2.20;71.60;0.10;96502.00;;;;5052887;28;20439;-76
2024/01/08 02:14:12;;;;;;;3.83;3.53;;;2.20;71.50;0.10;96498.00;;;;5051283;28;20967;-76
2024/01/08 02:16:39;;;;;;;3.47;2.80;;;2.30;71.80;0.10;96510.00;;;;5055007;28;20854;-76
2024/01/08 02:19:06;;;;;;;3.13;2.93;;;2.30;71.70;0.10;96502.00;;;;5050418;28;20474;-76
2024/01/08 02:21:34;;;;;;;3.10;2.80;;;2.30;71.60;0.10;96501.00;;;;5033397;28;20453;-76
2024/01/08 02:24:03;;;;;;;3.07;2.87;;;2.30;71.30;0.10;96509.00;;;;5050688;28;20438;-75
2024/01/08 02:26:30;;;;;;;2.87;2.67;;;2.30;71.20;0.10;96507.00;;;;5051051;28;20555;-76
2024/01/08 02:28:57;;;;;;;2.97;2.77;;;2.30;71.70;0.10;96503.00;;;;5057530;28;20542;-76
2024/01/08 02:31:25;;;;;;;3.40;2.80;;;2.30;71.60;0.10;96511.00;;;;5043550;28;20538;-76
2024/01/08 02:33:52;;;;;;;3.27;2.97;;;2.30;71.50;0.10;96507.00;;;;5059949;28;20600;-76
2024/01/08 02:36:18;;;;;;;3.33;3.03;;;2.30;71.50;0.10;96516.00;;;;5050326;28;20522;-75
2024/01/08 02:38:45;;;;;;;3.10;2.90;;;2.30;71.70;0.10;96510.00;;;;5032831;28;20886;-76
2024/01/08 02:41:14;;;;;;;2.90;2.70;;;2.30;71.50;0.10;96517.00;;;;5049145;28;20457;-76
2024/01/08 02:43:41;;;;;;;3.00;2.80;;;2.30;71.40;0.20;96505.00;;;;5049805;28;20505;-76
2024/01/08 02:46:09;;;;;;;2.93;2.73;;;2.30;71.20;0.20;96507.00;;;;5048078;28;20443;-76
2024/01/08 02:48:36;;;;;;;2.93;2.73;;;2.30;71.50;0.20;96510.00;;;;5047660;28;20478;-75
2024/01/08 02:51:03;;;;;;;3.50;3.20;;;2.30;71.70;0.20;96505.00;;;;5030977;28;20439;-76
2024/01/08 02:53:30;;;;;;;3.00;2.80;;;2.30;71.60;0.30;96509.00;;;;5047698;28;20514;-76
2024/01/08 02:55:58;;;;;;;3.10;2.90;;;2.40;71.80;0.30;96504.00;;;;5052213;28;20526;-75
2024/01/08 02:58:26;;;;;;;3.00;2.80;;;2.40;71.40;0.30;96511.00;;;;5050340;28;20545;-76
2024/01/08 03:00:55;;;;;;;3.20;2.90;;;2.40;71.10;0.30;96512.00;;;;5050220;28;20537;-76
2024/01/08 03:03:22;;;;;;;3.97;2.90;;;2.40;71.30;0.30;96501.00;;;;5049134;28;20521;-76
2024/01/08 03:05:49;;;;;;;2.77;2.50;;;2.40;71.50;0.30;96517.00;;;;5049678;28;20482;-76
2024/01/08 03:08:17;;;;;;;3.07;2.87;;;2.40;72.30;0.30;96521.00;;;;5052995;28;20561;-76
2024/01/08 03:10:44;;;;;;;5.43;3.30;;;2.40;71.50;0.30;96528.00;;;;5049928;28;20527;-75
2024/01/08 03:13:11;;;;;;;3.07;2.77;;;2.40;71.50;0.30;96524.00;;;;5052916;28;20518;-75
2024/01/08 03:15:39;;;;;;;3.47;3.17;;;2.50;71.80;0.30;96534.00;;;;5053651;28;20518;-76
2024/01/08 03:18:07;;;;;;;3.50;2.93;;;2.40;71.60;0.30;96529.00;;;;5054475;28;20947;-76
2024/01/08 03:20:34;;;;;;;3.30;3.00;;;2.40;71.70;0.40;96541.00;;;;5048797;28;20550;-76
2024/01/08 03:23:01;;;;;;;3.37;3.07;;;2.50;71.90;0.40;96533.00;;;;5059304;28;20466;-76
2024/01/08 03:25:28;;;;;;;3.50;3.20;;;2.50;72.20;0.40;96526.00;;;;5054331;28;20990;-76
2024/01/08 03:27:56;;;;;;;3.00;2.80;;;2.50;72.30;0.40;96532.00;;;;5054974;28;20895;-76
2024/01/08 03:30:23;;;;;;;3.13;2.87;;;2.50;71.80;0.40;96529.00;;;;5057595;28;21042;-76
2024/01/08 03:32:51;;;;;;;3.10;2.80;;;2.50;71.70;0.40;96536.00;;;;5053746;28;20462;-76
2024/01/08 03:35:19;;;;;;;3.27;2.87;;;2.50;71.30;0.40;96528.00;;;;5052858;28;20526;-76
2024/01/08 03:37:46;;;;;;;3.37;3.03;;;2.50;71.30;0.40;96533.00;;;;5053712;28;20530;-76
2024/01/08 03:40:14;;;;;;;3.47;2.83;;;2.50;71.50;0.50;96530.00;;;;5052178;28;20967;-76
2024/01/08 03:42:42;;;;;;;2.93;2.70;;;2.60;71.20;0.50;96532.00;;;;5052218;28;20847;-75
2024/01/08 03:45:10;;;;;;;3.17;2.70;;;2.60;71.30;0.50;96521.00;;;;5054894;28;21019;-75
2024/01/08 03:47:39;;;;;;;3.20;2.90;;;2.60;71.20;0.50;96539.00;;;;5050683;28;20467;-75
2024/01/08 03:50:09;;;;;;;3.03;2.83;;;2.60;71.40;0.50;96531.00;;;;5051352;28;20473;-76
2024/01/08 03:52:36;;;;;;;3.37;3.07;;;2.60;70.80;0.50;96535.00;;;;5053625;28;20440;-76
2024/01/08 03:55:06;;;;;;;2.90;2.70;;;2.60;70.60;0.40;96533.00;;;;5051871;28;20523;-76
2024/01/08 03:57:34;;;;;;;3.20;2.90;;;2.60;70.50;0.40;96532.00;;;;5058971;28;20515;-76
2024/01/08 04:00:01;;;;;;;3.07;2.87;;;2.60;70.70;0.40;96531.00;;;;5053344;28;20906;-76
2024/01/08 04:02:28;;;;;;;3.73;2.93;;;2.60;70.60;0.40;96538.00;;;;5053515;28;20522;-76
2024/01/08 04:04:55;;;;;;;3.80;3.10;;;2.50;70.80;0.40;96544.00;;;;5048085;28;20452;-76
2024/01/08 04:07:24;;;;;;;3.00;2.80;;;2.50;71.00;0.40;96540.00;;;;5052447;28;20566;-76
2024/01/08 04:09:51;;;;;;;2.87;2.67;;;2.60;71.10;0.40;96537.00;;;;5053950;28;20566;-76
2024/01/08 04:12:18;;;;;;;3.07;2.77;;;2.50;70.70;0.40;96534.00;;;;5052324;28;20539;-76
2024/01/08 04:14:45;;;;;;;3.57;3.27;;;2.50;70.60;0.40;96543.00;;;;5055163;28;20436;-76
2024/01/08 04:17:13;;;;;;;3.43;3.17;;;2.50;70.60;0.40;96541.00;;;;5054035;28;20518;-75
2024/01/08 04:19:40;;;;;;;3.07;2.87;;;2.50;71.00;0.40;96550.00;;;;5051846;28;20464;-76
2024/01/08 04:22:07;;;;;;;2.90;2.70;;;2.50;71.20;0.40;96542.00;;;;5052718;28;20479;-76
2024/01/08 04:24:36;;;;;;;3.10;2.90;;;2.50;71.00;0.40;96542.00;;;;5053359;28;20526;-76
2024/01/08 04:27:03;;;;;;;3.13;2.90;;;2.50;71.00;0.40;96542.00;;;;5052970;28;20998;-76
2024/01/08 04:29:30;;;;;;;3.33;3.00;;;2.60;71.10;0.50;96543.00;;;;5053380;28;20471;-76
2024/01/08 04:31:58;;;;;;;3.20;2.90;;;2.60;71.30;0.50;96546.00;;;;5051835;28;20984;-76
2024/01/08 04:34:25;;;;;;;3.17;2.97;;;2.60;71.10;0.50;96550.00;;;;5052587;28;20526;-76
2024/01/08 04:36:52;;;;;;;3.17;2.90;;;2.60;71.10;0.50;96547.00;;;;5051504;28;20917;-76
2024/01/08 04:39:19;;;;;;;4.30;3.07;;;2.60;71.00;0.50;96550.00;;;;5052172;28;20566;-75
2024/01/08 04:41:48;;;;;;;3.30;3.10;;;2.60;71.00;0.50;96550.00;;;;5055300;28;21038;-75
2024/01/08 04:44:16;;;;;;;3.10;2.90;;;2.60;71.30;0.50;96551.00;;;;5052279;28;20432;-75
2024/01/08 04:46:44;;;;;;;3.27;2.97;;;2.60;71.10;0.50;96559.00;;;;5051111;28;20501;-76
2024/01/08 04:49:12;;;;;;;3.23;3.03;;;2.60;71.00;0.50;96562.00;;;;5050966;28;20471;-75
2024/01/08 04:51:39;;;;;;;3.13;2.90;;;2.60;70.80;0.50;96557.00;;;;5051587;28;20459;-76
2024/01/08 04:54:09;;;;;;;3.33;3.03;;;2.60;71.20;0.50;96555.00;;;;5052797;28;20471;-75
2024/01/08 04:56:36;;;;;;;3.07;2.83;;;2.60;71.10;0.50;96557.00;;;;5052940;28;20530;-75
2024/01/08 04:59:05;;;;;;;3.20;3.00;;;2.60;71.30;0.50;96560.00;;;;5052030;28;20471;-75
2024/01/08 05:01:37;;;;;;;3.00;2.80;;;2.60;71.20;0.50;96556.00;;;;5052200;28;20530;-76
2024/01/08 05:04:05;;;;;;;3.27;2.97;;;2.70;70.90;0.60;96558.00;;;;5052564;28;20467;-76
2024/01/08 05:06:32;;;;;;;3.77;3.40;;;2.70;71.10;0.60;96559.00;;;;5035427;28;20984;-76
2024/01/08 05:09:00;;;;;;;3.77;3.47;;;2.70;71.00;0.60;96558.00;;;;5052146;28;20511;-76
2024/01/08 05:11:27;;;;;;;3.00;2.80;;;2.70;71.30;0.60;96562.00;;;;5050898;28;20445;-76
2024/01/08 05:13:55;;;;;;;3.50;3.20;;;2.70;71.70;0.60;96567.00;;;;5050916;28;20443;-76
2024/01/08 05:16:23;;;;;;;3.30;3.00;;;2.70;70.90;0.60;96567.00;;;;5051769;28;20906;-76
2024/01/08 05:18:50;;;;;;;3.37;3.07;;;2.70;71.20;0.60;96566.00;;;;5034648;28;20463;-76
2024/01/08 05:21:17;;;;;;;3.10;2.90;;;2.70;70.90;0.60;96573.00;;;;5051404;28;20542;-76
2024/01/08 05:23:45;;;;;;;3.50;3.20;;;2.70;70.90;0.60;96568.00;;;;5051989;28;20902;-76
2024/01/08 05:26:12;;;;;;;3.37;3.10;;;2.70;70.70;0.60;96560.00;;;;5052058;28;20487;-76
2024/01/08 05:28:39;;;;;;;3.90;3.60;;;2.70;71.10;0.60;96572.00;;;;5050142;28;20498;-75
2024/01/08 05:31:06;;;;;;;3.60;3.27;;;2.70;71.40;0.60;96563.00;;;;5051272;28;20527;-76
2024/01/08 05:33:35;;;;;;;4.20;3.87;;;2.70;71.30;0.70;96575.00;;;;5049882;28;20471;-76
2024/01/08 05:36:03;;;;;;;3.80;3.30;;;2.70;71.30;0.70;96571.00;;;;5056306;28;20952;-76
2024/01/08 05:38:30;;;;;;;4.10;3.70;;;2.80;71.80;0.70;96572.00;;;;5049091;28;20490;-75
2024/01/08 05:40:58;;;;;;;3.83;3.53;;;2.80;71.10;0.70;96580.00;;;;5049224;28;20807;-76
2024/01/08 05:43:25;;;;;;;3.33;3.03;;;2.80;71.20;0.80;96577.00;;;;5050003;28;20535;-76
2024/01/08 05:45:53;;;;;;;3.47;3.17;;;2.80;71.60;0.80;96569.00;;;;5050549;28;20526;-76
2024/01/08 05:48:21;;;;;;;4.03;3.63;;;2.80;71.90;0.80;96575.00;;;;5033163;28;20570;-76
2024/01/08 05:50:49;;;;;;;3.40;3.10;;;2.80;71.90;0.80;96582.00;;;;5049033;28;20466;-75
2024/01/08 05:53:17;;;;;;;3.83;3.53;;;2.80;72.10;0.90;96580.00;;;;5051798;28;20521;-75
2024/01/08 05:55:44;;;;;;;3.97;3.67;;;2.90;72.00;0.90;96589.00;;;;5050144;28;20465;-76
2024/01/08 05:58:11;;;;;;;4.77;3.87;;;2.90;71.90;0.90;96583.00;;;;5051951;28;20447;-76
2024/01/08 06:00:39;;;;;;;3.63;3.33;;;2.90;72.00;0.90;96595.00;;;;5051344;28;21076;-76
2024/01/08 06:03:06;;;;;;;4.00;3.60;;;2.90;71.90;0.90;96589.00;;;;5050720;28;20454;-75
2024/01/08 06:05:34;;;;;;;4.63;4.00;;;2.90;72.00;0.90;96595.00;;;;5051468;28;20478;-76
2024/01/08 06:08:03;;;;;;;3.93;3.63;;;3.00;71.90;0.90;96594.00;;;;5033156;28;20477;-75
2024/01/08 06:10:30;;;;;;;4.57;4.17;;;3.00;71.60;0.90;96596.00;;;;5050983;28;20447;-76
2024/01/08 06:12:57;;;;;;;4.00;3.70;;;3.00;71.80;1.00;96612.00;;;;5051040;28;20534;-76
2024/01/08 06:15:25;;;;;;;4.47;4.07;;;3.00;71.60;1.00;96606.00;;;;5056734;28;20531;-75
2024/01/08 06:17:52;;;;;;;4.00;3.70;;;3.00;71.90;1.00;96601.00;;;;5056120;28;21016;-75
2024/01/08 06:20:19;;;;;;;3.97;3.67;;;3.00;71.50;1.00;96602.00;;;;5050508;28;20523;-76
2024/01/08 06:22:46;;;;;;;3.80;3.43;;;3.00;71.30;0.90;96611.00;;;;5051777;28;20682;-76
2024/01/08 06:25:15;;;;;;;3.63;3.37;;;3.00;71.10;0.90;96600.00;;;;5050272;28;20546;-76
2024/01/08 06:27:42;;;;;;;4.00;3.60;;;3.00;71.30;0.90;96602.00;;;;5049812;28;20570;-76
2024/01/08 06:30:12;;;;;;;4.40;3.97;;;3.00;71.10;0.90;96605.00;;;;5051814;28;20819;-76
2024/01/08 06:32:39;;;;;;;4.00;3.70;;;3.00;71.40;0.90;96602.00;;;;5048009;28;20443;-76
2024/01/08 06:35:07;;;;;;;4.50;4.13;;;3.00;71.10;0.90;96610.00;;;;5048777;28;20566;-77
2024/01/08 06:37:34;;;;;;;4.03;3.63;;;3.00;71.00;0.90;96611.00;;;;5049944;28;20467;-77
2024/01/08 06:40:02;;;;;;;5.20;4.23;;;3.00;71.00;1.00;96609.00;;;;5046774;28;20509;-77
2024/01/08 06:42:31;;;;;;;3.93;3.63;;;3.00;71.30;1.00;96610.00;;;;5049131;28;20863;-77
2024/01/08 06:44:59;;;;;;;4.67;4.27;;;3.10;71.60;1.10;96608.00;;;;5050987;28;20467;-77
2024/01/08 06:47:26;;;;;;;3.97;3.67;;;3.10;72.00;1.10;96614.00;;;;5050906;28;20546;-77
2024/01/08 06:49:53;;;;;;;4.93;4.20;;;3.10;72.00;1.10;96615.00;;;;5053791;28;20562;-77
2024/01/08 06:52:20;;;;;;;4.07;3.67;;;3.20;71.90;1.20;96621.00;;;;5052749;28;20530;-77
2024/01/08 06:54:47;;;;;;;4.60;4.20;;;3.20;71.60;1.20;96615.00;;;;5053636;28;20529;-77
2024/01/08 06:57:14;;;;;;;4.23;3.90;;;3.20;71.20;1.20;96614.00;;;;5055239;28;20466;-76
2024/01/08 06:59:43;;;;;;;4.67;4.27;;;3.30;71.30;1.20;96619.00;;;;5041433;28;20490;-77
2024/01/08 07:02:10;;;;;;;4.60;4.10;;;3.40;71.10;1.20;96621.00;;;;5052819;28;20538;-77
2024/01/08 07:04:38;;;;;;;4.60;4.20;;;3.30;71.20;1.30;96612.00;;;;5055796;28;20505;-77
2024/01/08 07:07:05;;;;;;;4.57;4.17;;;3.30;71.30;1.30;96625.00;;;;5052203;28;20442;-76
2024/01/08 07:09:32;;;;;;;4.20;3.80;;;3.30;71.20;1.30;96616.00;;;;5052128;28;20475;-77
2024/01/08 07:12:01;;;;;;;4.10;3.77;;;3.40;71.30;1.30;96622.00;;;;5053680;28;20486;-77
2024/01/08 07:14:28;;;;;;;4.93;4.37;;;3.40;71.40;1.30;96609.00;;;;5058093;28;20510;-77
2024/01/08 07:16:57;;;;;;;5.07;4.57;;;3.40;71.10;1.30;96623.00;;;;5054701;28;20530;-77
2024/01/08 07:19:24;;;;;;;4.90;4.50;;;3.40;71.00;1.30;96621.00;;;;5045517;28;20549;-77
2024/01/08 07:21:52;;;;;;;4.50;3.83;;;3.40;70.90;1.30;96628.00;;;;5052458;28;20445;-77
2024/01/08 07:24:19;;;;;;;4.50;4.10;;;3.40;71.10;1.30;96636.00;;;;5051813;28;20967;-77
2024/01/08 07:26:47;;;;;;;4.73;4.33;;;3.40;71.90;1.40;96636.00;;;;5053560;28;20451;-77
2024/01/08 07:29:14;;;;;;;5.30;4.63;;;3.40;72.10;1.40;96631.00;;;;5053566;28;20482;-77
2024/01/08 07:31:41;;;;;;;5.13;4.50;;;3.50;71.40;1.40;96633.00;;;;5053517;28;20450;-77
2024/01/08 07:34:10;;;;;;;4.30;3.97;;;3.50;71.00;1.40;96641.00;;;;5052437;28;21042;-76
2024/01/08 07:36:38;;;;;;;4.60;4.20;;;3.50;71.40;1.40;96645.00;;;;5051907;28;20450;-77
2024/01/08 07:39:05;;;;;;;4.80;4.40;;;3.50;70.80;1.40;96642.00;;;;5057573;28;20477;-77
2024/01/08 07:41:33;;;;;;;4.57;4.17;;;3.50;70.90;1.40;96636.00;;;;5053644;28;20482;-77
2024/01/08 07:44:00;;;;;;;4.63;4.23;;;3.50;70.90;1.40;96648.00;;;;5054146;28;20944;-77
2024/01/08 07:46:27;;;;;;;4.93;4.47;;;3.50;70.90;1.40;96647.00;;;;5055115;28;20522;-77
2024/01/08 07:48:56;;;;;;;4.93;4.50;;;3.50;71.70;1.50;96659.00;;;;5060711;28;20509;-77
2024/01/08 07:51:24;;;;;;;5.07;4.60;;;3.50;70.80;1.50;96660.00;;;;5058230;28;20557;-77
2024/01/08 07:53:52;;;;;;;4.60;4.20;;;3.50;71.10;1.50;96657.00;;;;5053933;28;20471;-77
2024/01/08 07:56:25;;;;;;;5.43;4.93;;;3.60;71.30;1.60;96659.00;;;;5053384;28;20428;-77
2024/01/08 07:58:53;;;;;;;4.73;4.27;;;3.60;71.30;1.60;96670.00;;;;5046708;28;20487;-77
2024/01/08 08:01:20;;;;;;;4.47;4.07;;;3.70;71.60;1.70;96668.00;;;;5043929;28;20478;-77
2024/01/08 08:03:47;;;;;;;5.27;4.77;;;3.70;71.50;1.70;96676.00;;;;5053625;28;20471;-77
2024/01/08 08:06:15;;;;;;;4.53;4.13;;;3.70;71.20;1.70;96675.00;;;;5053345;28;20489;-77
2024/01/08 08:08:44;;;;;;;5.00;4.60;;;3.70;71.20;1.70;96671.00;;;;5053416;28;20475;-77
2024/01/08 08:11:11;;;;;;;5.07;4.37;;;3.80;71.20;1.80;96678.00;;;;5058100;28;20987;-77
2024/01/08 08:13:39;;;;;;;5.03;4.60;;;3.80;71.40;1.80;96677.00;;;;5060038;28;20435;-77
2024/01/08 08:16:09;;;;;;;5.47;4.40;;;3.80;71.30;1.80;96680.00;;;;5052332;28;20877;-78
2024/01/08 08:18:39;;;;;;;4.53;4.13;;;3.80;71.20;1.80;96685.00;;;;5054100;28;20520;-78
2024/01/08 08:21:06;;;;;;;4.93;4.47;;;3.90;70.90;1.80;96683.00;;;;5049720;28;20807;-78
2024/01/08 08:23:33;;;;;;;4.83;4.43;;;3.90;70.70;1.90;96689.00;;;;5052989;28;20867;-78
2024/01/08 08:26:02;;;;;;;6.17;5.17;;;3.90;71.00;1.90;96691.00;;;;5049666;28;20455;-78
2024/01/08 08:28:30;;;;;;;5.43;4.80;;;3.90;71.40;2.00;96694.00;;;;5051278;28;20486;-78
2024/01/08 08:30:57;;;;;;;4.67;4.27;;;4.00;71.70;2.00;96696.00;;;;5050869;28;20991;-78
2024/01/08 08:33:24;;;;;;;4.67;4.27;;;4.00;71.40;2.10;96693.00;;;;5044471;28;20188;-78
2024/01/08 08:35:51;;;;;;;5.77;5.10;;;4.00;71.60;2.10;96700.00;;;;5058488;28;20192;-78
2024/01/08 08:38:19;;;;;;;5.00;4.50;;;4.10;71.30;2.10;96701.00;;;;5051365;28;20220;-78
2024/01/08 08:40:46;;;;;;;4.90;4.50;;;4.10;71.10;2.10;96698.00;;;;5051749;28;20275;-78
2024/01/08 08:43:15;;;;;;;5.30;4.80;;;4.10;71.50;2.20;96699.00;;;;5050512;28;21055;-78
2024/01/08 08:45:42;;;;;;;5.37;4.87;;;4.20;71.50;2.20;96704.00;;;;5053053;28;20450;-78
2024/01/08 08:48:10;;;;;;;5.13;4.67;;;4.20;71.50;2.30;96712.00;;;;5053757;28;20474;-78
2024/01/08 08:50:37;;;;;;;5.80;4.53;;;4.30;71.40;2.30;96712.00;;;;5058361;28;20283;-77
2024/01/08 08:53:04;;;;;;;5.80;5.20;;;4.30;70.80;2.30;96708.00;;;;5052265;28;20431;-78
2024/01/08 08:55:32;;;;;;;5.07;4.60;;;4.30;70.80;2.40;96712.00;;;;5051842;28;20543;-77
2024/01/08 08:57:59;;;;;;;5.40;4.90;;;4.40;71.00;2.40;96721.00;;;;5051426;28;20287;-78
2024/01/08 09:00:27;;;;;;;5.60;4.90;;;4.40;71.10;2.40;96717.00;;;;5053937;28;20280;-78
2024/01/08 09:02:56;;;;;;;5.57;4.50;;;4.40;71.80;2.40;96720.00;;;;5050842;28;20188;-77
2024/01/08 09:05:23;;;;;;;5.40;4.90;;;4.50;71.10;2.50;96729.00;;;;5052492;28;20223;-77
2024/01/08 09:07:50;;;;;;;4.70;4.30;;;4.50;70.80;2.50;96733.00;;;;5055804;28;20526;-78
2024/01/08 09:10:18;;;;;;;5.03;4.57;;;4.60;71.10;2.50;96726.00;;;;5051205;28;20255;-78
2024/01/08 09:12:48;;;;;;;4.70;4.30;;;4.60;71.00;2.60;96739.00;;;;5051946;28;20235;-78
2024/01/08 09:15:24;;;;;;;5.60;5.03;;;4.60;71.00;2.60;96739.00;;;;5051282;28;20272;-78
2024/01/08 09:17:53;;;;;;;5.77;4.63;;;4.70;70.60;2.70;96746.00;;;;5049028;28;20231;-77
2024/01/08 09:20:21;;;;;;;4.83;4.43;;;4.70;70.70;2.70;96748.00;;;;5065060;28;20235;-78
2024/01/08 09:22:48;;;;;;;4.80;4.27;;;4.70;70.80;2.80;96751.00;;;;5052578;28;20188;-78
2024/01/08 09:25:15;;;;;;;5.23;4.57;;;4.80;70.90;2.80;96746.00;;;;5050014;28;20192;-77
2024/01/08 09:27:43;;;;;;;4.40;3.93;;;4.80;70.30;2.80;96742.00;;;;5051766;28;20271;-78
2024/01/08 09:30:11;;;;;;;4.83;4.33;;;4.80;70.20;2.90;96757.00;;;;5050874;28;20225;-78
2024/01/08 09:32:38;;;;;;;4.93;4.17;;;4.80;70.10;2.90;96767.00;;;;5052805;28;20291;-78
2024/01/08 09:35:08;;;;;;;4.80;4.37;;;4.90;70.30;2.90;96770.00;;;;5056732;28;20216;-78
2024/01/08 09:37:35;;;;;;;4.80;4.37;;;4.90;70.10;3.00;96767.00;;;;5051332;28;20224;-78
2024/01/08 09:40:04;;;;;;;5.97;4.63;;;4.90;70.10;3.00;96767.00;;;;5059027;28;20208;-78
2024/01/08 09:42:35;;;;;;;5.43;4.50;;;5.00;70.20;3.00;96769.00;;;;5050485;28;20177;-78
2024/01/08 09:45:04;;;;;;;4.80;4.40;;;5.00;70.30;3.10;96772.00;;;;5056353;28;20296;-78
2024/01/08 09:47:33;;;;;;;4.60;4.20;;;5.10;70.30;3.20;96776.00;;;;5055799;28;20207;-78
2024/01/08 09:50:02;;;;;;;4.80;4.40;;;5.10;70.40;3.20;96776.00;;;;5048501;28;20307;-78
2024/01/08 09:52:34;;;;;;;5.47;4.97;;;5.10;70.30;3.20;96769.00;;;;5051363;28;20216;-78
2024/01/08 09:55:02;;;;;;;4.93;4.50;;;5.20;69.90;3.20;96777.00;;;;5053582;28;20549;-78
2024/01/08 09:57:29;;;;;;;5.67;4.50;;;5.20;69.90;3.20;96772.00;;;;5050928;28;20726;-78
2024/01/08 09:59:56;;;;;;;4.93;4.53;;;5.20;69.50;3.20;96768.00;;;;5051469;28;20204;-78
2024/01/08 10:02:24;;;;;;;5.10;4.40;;;5.20;69.60;3.20;96773.00;;;;5050918;28;20205;-78
2024/01/08 10:04:51;;;;;;;4.87;4.47;;;5.20;69.70;3.30;96769.00;;;;5052390;28;20185;-78
2024/01/08 10:07:19;;;;;;;4.60;4.20;;;5.30;70.00;3.30;96773.00;;;;5055527;28;20677;-78
2024/01/08 10:09:47;;;;;;;5.10;4.60;;;5.30;69.70;3.30;96769.00;;;;5051740;28;20303;-78
2024/01/08 10:12:16;;;;;;;5.27;4.77;;;5.30;69.50;3.30;96765.00;;;;5057077;28;20276;-78
2024/01/08 10:14:43;;;;;;;4.80;4.40;;;5.30;69.70;3.40;96768.00;;;;5049832;28;20216;-78
2024/01/08 10:17:14;;;;;;;5.97;4.80;;;5.40;69.60;3.40;96765.00;;;;5049184;28;20287;-78
2024/01/08 10:19:41;;;;;;;5.27;4.70;;;5.30;69.90;3.40;96766.00;;;;5050211;28;20213;-78
2024/01/08 10:22:11;;;;;;;5.27;4.77;;;5.40;70.00;3.40;96762.00;;;;5049083;28;20250;-78
2024/01/08 10:24:41;;;;;;;5.10;4.60;;;5.40;69.60;3.40;96760.00;;;;5049064;28;20287;-78
2024/01/08 10:27:12;;;;;;;5.23;4.83;;;5.40;69.90;3.40;96764.00;;;;5049631;28;20669;-78
2024/01/08 10:29:41;;;;;;;6.00;5.40;;;5.40;69.50;3.40;96768.00;;;;5050752;28;20586;-78
2024/01/08 10:32:12;;;;;;;5.00;4.50;;;5.40;69.60;3.50;96765.00;;;;5050395;28;20228;-78
2024/01/08 10:34:41;;;;;;;7.80;5.30;;;5.40;69.60;3.50;96767.00;;;;5050914;28;20192;-78
2024/01/08 10:37:09;;;;;;;5.20;4.70;;;5.50;69.90;3.50;96765.00;;;;5050377;28;20287;-78
2024/01/08 10:39:39;;;;;;;5.23;4.80;;;5.50;69.60;3.60;96764.00;;;;5052410;28;20639;-78
2024/01/08 10:42:07;;;;;;;4.97;4.47;;;5.50;69.40;3.60;96760.00;;;;5050559;28;20197;-78
2024/01/08 10:44:36;;;;;;;5.07;4.60;;;5.50;69.60;3.60;96766.00;;;;5051107;28;20283;-78
2024/01/08 10:47:10;;;;;;;5.70;5.20;;;5.60;69.30;3.60;96765.00;;;;5050602;28;20284;-78
2024/01/08 10:49:49;;;;;;;5.00;4.53;;;5.50;69.10;3.60;96759.00;;;;5050673;28;20560;-78
2024/01/08 10:52:26;;;;;;;5.03;4.63;;;5.60;69.40;3.60;96755.00;;;;5051229;28;20280;-78
2024/01/08 10:54:57;;;;;;;5.33;4.83;;;5.60;69.10;3.60;96752.00;;;;5057729;28;20201;-78
2024/01/08 10:57:36;;;;;;;4.80;4.40;;;5.60;69.10;3.50;96750.00;;;;5026046;28;20193;-78
2024/01/08 11:00:09;;;;;;;4.90;4.50;;;5.60;68.60;3.50;96747.00;;;;5056565;28;20212;-78
2024/01/08 11:02:38;;;;;;;5.40;4.90;;;5.50;68.80;3.50;96745.00;;;;5050156;28;20287;-79
2024/01/08 11:05:08;;;;;;;5.13;4.73;;;5.50;69.00;3.50;96740.00;;;;5050918;28;20369;-78
2024/01/08 11:07:39;;;;;;;5.63;5.13;;;5.50;68.80;3.50;96741.00;;;;5048237;28;20189;-78
2024/01/08 11:10:09;;;;;;;5.37;4.87;;;5.60;68.70;3.60;96741.00;;;;5054116;28;20212;-79
2024/01/08 11:12:37;;;;;;;5.23;4.73;;;5.50;69.00;3.60;96745.00;;;;5047568;28;20189;-79